Time;durP1;ratioP1;P1;durP2;ratioP2;P2;SDS_P1;SDS_P2;PMS_P1;PMS_P2;Temp;Humidity;BMP_temperature;BMP_pressure;BME280_temperature;BME280_humidity;BME280_pressure;Samples;Min_cycle;Max_cycle;Signal;HPM_P1;HPM_P2
2022/08/22 00:01:24;;;;;;;3.77;2.50;;;;;;;18.20;89.87;100068.94;4897996;29;20189;-70
2022/08/22 00:04:04;;;;;;;3.13;2.73;;;;;;;18.22;90.26;100072.34;4896825;29;20189;-74
2022/08/22 00:06:38;;;;;;;3.57;3.20;;;;;;;18.22;91.21;100070.59;4891365;29;20244;-72
2022/08/22 00:09:34;;;;;;;3.83;3.53;;;;;;;18.22;91.68;100070.59;4899748;29;20192;-71
2022/08/22 00:12:22;;;;;;;4.80;4.40;;;;;;;18.20;92.10;100074.16;4896500;29;20308;-72
2022/08/22 00:15:10;;;;;;;4.97;4.50;;;;;;;18.18;92.54;100071.63;4911337;29;20196;-74
2022/08/22 00:17:52;;;;;;;5.60;5.00;;;;;;;18.16;93.09;100065.59;4906910;29;20197;-72
2022/08/22 00:20:56;;;;;;;5.60;5.10;;;;;;;18.07;91.28;100066.03;4905700;29;20195;-71
2022/08/22 00:23:29;;;;;;;6.17;5.57;;;;;;;17.98;90.04;100075.97;4912017;29;20273;-71
2022/08/22 00:26:02;;;;;;;6.63;5.83;;;;;;;17.94;88.23;100066.50;4896647;29;20208;-73
2022/08/22 00:28:43;;;;;;;6.63;6.00;;;;;;;17.90;86.60;100078.03;4898641;29;20230;-72
2022/08/22 00:31:23;;;;;;;6.67;5.97;;;;;;;17.90;86.07;100079.78;4894854;29;20229;-71
2022/08/22 00:34:07;;;;;;;6.93;6.03;;;;;;;17.91;86.21;100079.75;4900720;29;20188;-70
2022/08/22 00:36:39;;;;;;;6.47;5.77;;;;;;;17.94;87.01;100076.97;4898865;29;20216;-73
2022/08/22 00:39:20;;;;;;;5.67;5.17;;;;;;;17.94;87.92;100071.75;4898332;29;20741;-73
2022/08/22 00:42:21;;;;;;;5.60;5.10;;;;;;;17.91;87.17;100071.03;4902494;29;20676;-71
2022/08/22 00:45:01;;;;;;;5.13;4.57;;;;;;;17.89;86.40;100081.56;4901644;29;20195;-71
2022/08/22 00:47:44;;;;;;;4.73;3.80;;;;;;;17.93;87.32;100088.34;4899209;29;20597;-71
2022/08/22 00:50:28;;;;;;;5.23;4.20;;;;;;;17.92;87.27;100080.59;4899836;29;20406;-73
2022/08/22 00:53:02;;;;;;;5.43;4.30;;;;;;;17.90;86.81;100083.28;4899061;29;20188;-71
2022/08/22 00:55:43;;;;;;;4.60;3.90;;;;;;;17.92;86.33;100083.19;4908307;29;20214;-73
2022/08/22 00:58:30;;;;;;;4.07;3.70;;;;;;;17.92;85.54;100077.97;4900470;29;20192;-74
2022/08/22 01:01:04;;;;;;;4.00;3.60;;;;;;;17.93;85.21;100079.66;4902118;29;20748;-71
2022/08/22 01:03:45;;;;;;;3.50;3.20;;;;;;;17.95;85.56;100081.28;4895160;29;20220;-73
2022/08/22 01:06:23;;;;;;;3.60;3.10;;;;;;;17.97;85.94;100073.41;4908012;29;20227;-72
2022/08/22 01:09:04;;;;;;;3.57;3.27;;;;;;;17.99;86.79;100076.84;4897483;29;20192;-72
2022/08/22 01:12:06;;;;;;;3.67;3.33;;;;;;;17.99;87.67;100076.84;4896076;29;20250;-74
2022/08/22 01:14:41;;;;;;;3.30;3.00;;;;;;;17.96;87.97;100071.69;4895211;29;20187;-73
2022/08/22 01:17:30;;;;;;;2.80;2.50;;;;;;;17.92;88.96;100067.50;4893010;29;20208;-72
2022/08/22 01:20:17;;;;;;;3.50;2.87;;;;;;;17.87;89.04;100048.50;4895711;29;21003;-69
2022/08/22 01:22:57;;;;;;;3.40;3.10;;;;;;;17.84;89.72;100059.97;4908165;29;20193;-71
2022/08/22 01:25:44;;;;;;;3.77;3.10;;;;;;;17.77;89.66;100063.78;4896834;29;20232;-72
2022/08/22 01:28:34;;;;;;;3.50;3.20;;;;;;;17.68;90.19;100055.38;4894063;29;20556;-73
2022/08/22 01:31:37;;;;;;;3.53;2.90;;;;;;;17.61;90.28;100060.94;4908664;29;20284;-72
2022/08/22 01:34:20;;;;;;;3.43;3.13;;;;;;;17.55;90.69;100051.59;4903509;29;20243;-72
2022/08/22 01:37:00;;;;;;;3.67;3.33;;;;;;;17.52;91.34;100049.97;4902818;29;20223;-71
2022/08/22 01:39:41;;;;;;;3.40;3.10;;;;;;;17.51;91.68;100053.50;4899032;29;20189;-71
2022/08/22 01:42:40;;;;;;;4.00;3.60;;;;;;;17.48;92.30;100044.91;4896693;29;20304;-71
2022/08/22 01:45:34;;;;;;;3.70;3.30;;;;;;;17.44;92.50;100044.19;4909732;29;20190;-71
2022/08/22 01:48:28;;;;;;;4.50;3.67;;;;;;;17.43;91.97;100044.25;4918084;29;20225;-71
2022/08/22 01:51:16;;;;;;;4.63;3.53;;;;;;;17.42;92.57;100032.94;4906360;29;20181;-71
2022/08/22 01:53:46;;;;;;;3.80;3.50;;;;;;;17.40;92.65;100039.16;4894452;29;20292;-71
2022/08/22 01:56:18;;;;;;;4.63;4.23;;;;;;;17.35;92.03;100045.41;4895977;29;20213;-72
2022/08/22 01:58:54;;;;;;;4.67;4.03;;;;;;;17.33;91.51;100041.16;4895287;29;20274;-72
2022/08/22 02:01:55;;;;;;;4.30;3.90;;;;;;;17.30;91.38;100033.44;4900075;29;20185;-72
2022/08/22 02:04:35;;;;;;;4.17;3.73;;;;;;;17.29;90.59;100045.69;4894381;29;20697;-72
2022/08/22 02:07:13;;;;;;;4.30;3.90;;;;;;;17.29;90.30;100043.06;4895740;29;20315;-71
2022/08/22 02:09:49;;;;;;;4.40;4.00;;;;;;;17.30;90.12;100044.78;4895134;29;20687;-71
2022/08/22 02:12:46;;;;;;;3.57;3.27;;;;;;;17.33;90.47;100046.41;4894086;29;20197;-72
2022/08/22 02:15:26;;;;;;;4.03;3.63;;;;;;;17.34;90.45;100042.88;4897055;29;20193;-71
2022/08/22 02:18:03;;;;;;;4.13;3.73;;;;;;;17.32;90.56;100042.91;4911084;29;20184;-72
2022/08/22 02:20:38;;;;;;;3.87;3.53;;;;;;;17.34;91.25;100038.47;4895905;29;20192;-71
2022/08/22 02:23:16;;;;;;;4.10;3.70;;;;;;;17.32;91.54;100039.47;4915919;29;20190;-71
2022/08/22 02:26:02;;;;;;;3.87;3.57;;;;;;;17.31;91.67;100043.00;4891925;29;20212;-72
2022/08/22 02:28:51;;;;;;;3.80;3.40;;;;;;;17.29;92.53;100042.19;4895051;29;20685;-71
2022/08/22 02:31:36;;;;;;;4.00;3.60;;;;;;;17.28;93.23;100037.88;4898903;29;20191;-71
2022/08/22 02:34:19;;;;;;;5.10;3.63;;;;;;;17.21;93.83;100032.91;4917895;29;20275;-71
2022/08/22 02:36:50;;;;;;;4.00;3.70;;;;;;;17.15;93.86;100035.75;4916953;29;20745;-75
2022/08/22 02:39:52;;;;;;;4.30;3.73;;;;;;;17.08;93.75;100036.06;4899558;29;20226;-76
2022/08/22 02:42:23;;;;;;;4.43;3.93;;;;;;;16.99;93.43;100030.31;4898128;29;20192;-73
2022/08/22 02:45:17;;;;;;;4.33;3.93;;;;;;;16.95;93.55;100033.09;4901437;29;20181;-72
2022/08/22 02:47:58;;;;;;;4.00;3.70;;;;;;;16.90;93.70;100026.28;4896069;29;20232;-71
2022/08/22 02:50:36;;;;;;;4.23;3.70;;;;;;;16.87;94.29;100028.13;4901584;29;20677;-75
2022/08/22 02:53:14;;;;;;;3.80;3.47;;;;;;;16.84;94.97;100031.72;4899798;29;20235;-71
2022/08/22 02:55:51;;;;;;;5.27;4.40;;;;;;;16.81;95.29;100029.22;4914886;29;20248;-72
2022/08/22 02:58:53;;;;;;;5.37;4.47;;;;;;;16.75;95.56;100029.47;4915076;29;20271;-71
2022/08/22 03:01:31;;;;;;;4.80;4.40;;;;;;;16.69;95.27;100027.09;4900981;29;20211;-71
2022/08/22 03:04:31;;;;;;;4.77;4.37;;;;;;;16.64;94.71;100027.28;4902126;29;20188;-73
2022/08/22 03:06:57;;;;;;;4.57;4.17;;;;;;;16.62;94.58;100026.47;4893471;29;20229;-71
2022/08/22 03:09:29;;;;;;;5.07;4.57;;;;;;;16.59;94.39;100024.84;4904163;29;20197;-72
2022/08/22 03:12:02;;;;;;;4.83;4.40;;;;;;;16.56;94.35;100026.75;4899290;29;20203;-75
2022/08/22 03:14:42;;;;;;;4.37;3.97;;;;;;;16.46;93.38;100018.38;4902855;29;20646;-72
2022/08/22 03:17:32;;;;;;;5.20;4.27;;;;;;;16.38;93.51;100028.25;4909657;29;20259;-73
2022/08/22 03:20:11;;;;;;;6.63;4.20;;;;;;;16.34;93.72;100030.13;4895414;29;20202;-70
2022/08/22 03:22:47;;;;;;;5.13;4.13;;;;;;;16.32;94.18;100028.50;4899144;29;20199;-71
2022/08/22 03:25:39;;;;;;;4.87;4.03;;;;;;;16.29;94.42;100032.94;4902110;29;20215;-72
2022/08/22 03:28:13;;;;;;;4.70;4.30;;;;;;;16.27;95.57;100032.13;4907003;29;20220;-72
2022/08/22 03:30:43;;;;;;;4.70;4.20;;;;;;;16.21;95.92;100028.91;4912233;29;20235;-76
2022/08/22 03:33:19;;;;;;;5.63;4.57;;;;;;;16.14;96.21;100021.28;4897196;29;20232;-71
2022/08/22 03:35:44;;;;;;;6.20;4.27;;;;;;;16.09;96.02;100030.19;4896043;29;20226;-72
2022/08/22 03:38:28;;;;;;;6.07;4.27;;;;;;;16.06;96.46;100036.38;4897024;29;20260;-72
2022/08/22 03:41:28;;;;;;;8.03;4.60;;;;;;;16.02;96.73;100031.31;4905507;29;20288;-73
2022/08/22 03:44:10;;;;;;;5.60;4.50;;;;;;;16.00;97.09;100032.22;4896803;29;20189;-72
2022/08/22 03:46:42;;;;;;;7.70;4.73;;;;;;;16.00;98.00;100028.75;4900554;29;20785;-71
2022/08/22 03:49:34;;;;;;;6.53;4.70;;;;;;;15.95;98.37;100034.13;4901583;29;20203;-71
2022/08/22 03:52:05;;;;;;;6.00;4.57;;;;;;;15.91;97.94;100037.75;4896629;29;20200;-72
2022/08/22 03:54:58;;;;;;;6.20;4.67;;;;;;;15.85;97.63;100030.16;4906157;29;20199;-72
2022/08/22 03:57:23;;;;;;;4.87;4.33;;;;;;;15.79;97.49;100031.19;4903461;29;20201;-71
2022/08/22 04:00:14;;;;;;;7.30;4.70;;;;;;;15.75;97.21;100029.59;4896405;29;20611;-72
2022/08/22 04:02:58;;;;;;;5.33;4.33;;;;;;;15.69;96.86;100030.66;4905461;29;20302;-73
2022/08/22 04:05:53;;;;;;;6.17;4.60;;;;;;;15.67;97.02;100035.06;4905699;29;20210;-74
2022/08/22 04:08:50;;;;;;;5.70;4.70;;;;;;;15.64;97.16;100036.94;4908490;29;20206;-73
2022/08/22 04:11:16;;;;;;;7.77;5.13;;;;;;;15.62;97.40;100034.38;4892493;29;20196;-71
2022/08/22 04:14:07;;;;;;;5.43;4.93;;;;;;;15.62;98.26;100038.75;4916419;29;20564;-72
2022/08/22 04:16:55;;;;;;;5.73;5.07;;;;;;;15.60;98.83;100040.56;4893190;29;20321;-70
2022/08/22 04:19:59;;;;;;;5.97;5.37;;;;;;;15.53;98.77;100048.56;4893679;29;20249;-71
2022/08/22 04:22:40;;;;;;;7.07;6.30;;;;;;;15.45;98.72;100049.72;4893687;29;20192;-74
2022/08/22 04:25:16;;;;;;;7.30;6.57;;;;;;;15.38;99.00;100049.94;4893232;29;20720;-73
2022/08/22 04:27:56;;;;;;;8.70;7.80;;;;;;;15.33;99.30;100048.38;4892317;29;20240;-70
2022/08/22 04:30:38;;;;;;;7.67;6.90;;;;;;;15.29;99.17;100046.78;4893680;29;20192;-74
2022/08/22 04:33:16;;;;;;;10.83;8.40;;;;;;;15.25;99.58;100056.47;4897466;29;20263;-72
2022/08/22 04:36:04;;;;;;;9.17;7.17;;;;;;;15.24;99.90;100055.59;4895504;29;20228;-72
2022/08/22 04:38:40;;;;;;;8.83;7.40;;;;;;;15.26;100.00;100052.94;4890348;29;20270;-71
2022/08/22 04:41:14;;;;;;;9.03;7.13;;;;;;;15.31;100.00;100047.59;4900178;29;20187;-71
2022/08/22 04:44:01;;;;;;;8.67;6.50;;;;;;;15.36;100.00;100051.75;4896943;29;20580;-72
2022/08/22 04:46:40;;;;;;;7.70;5.10;;;;;;;15.39;98.97;100061.22;4890155;29;20217;-72
2022/08/22 04:49:30;;;;;;;5.40;4.70;;;;;;;15.42;98.13;100052.44;4895011;29;20270;-74
2022/08/22 04:52:13;;;;;;;5.23;4.73;;;;;;;15.46;97.15;100049.69;4896764;29;20245;-72
2022/08/22 04:55:11;;;;;;;6.07;4.37;;;;;;;15.53;97.35;100053.78;4893289;29;20593;-76
2022/08/22 04:58:09;;;;;;;4.33;3.93;;;;;;;15.65;96.99;100068.19;4896001;29;20237;-71
2022/08/22 05:00:55;;;;;;;5.43;4.93;;;;;;;15.74;97.14;100066.16;4895533;29;20197;-73
2022/08/22 05:03:25;;;;;;;6.27;5.20;;;;;;;15.83;97.26;100063.25;4909422;29;20269;-71
2022/08/22 05:05:55;;;;;;;6.53;5.73;;;;;;;15.87;97.52;100062.28;4900637;29;20216;-70
2022/08/22 05:08:25;;;;;;;6.57;5.97;;;;;;;15.89;97.54;100059.59;4899732;29;20192;-71
2022/08/22 05:10:51;;;;;;;6.83;5.57;;;;;;;15.92;97.17;100067.31;4901305;29;20189;-71
2022/08/22 05:13:23;;;;;;;5.73;5.10;;;;;;;15.95;97.11;100065.47;4900200;29;20303;-70
2022/08/22 05:15:55;;;;;;;5.40;5.00;;;;;;;16.00;96.67;100065.28;4900156;29;20216;-75
2022/08/22 05:18:26;;;;;;;5.13;4.63;;;;;;;16.09;96.42;100061.50;4901528;29;20193;-71
2022/08/22 05:20:55;;;;;;;4.00;3.63;;;;;;;16.20;96.13;100063.75;4909440;29;20768;-71
2022/08/22 05:23:36;;;;;;;5.30;3.70;;;;;;;16.28;95.20;100065.16;4897784;29;20561;-71
2022/08/22 05:26:05;;;;;;;7.07;4.07;;;;;;;16.38;94.85;100064.81;4896901;29;20272;-72
2022/08/22 05:28:34;;;;;;;5.30;3.73;;;;;;;16.53;94.09;100058.19;4914282;29;20201;-71
2022/08/22 05:31:04;;;;;;;4.23;3.43;;;;;;;17.24;92.27;100060.69;4897767;29;20196;-72
2022/08/22 05:33:36;;;;;;;5.03;3.60;;;;;;;18.44;88.42;100053.88;4895369;29;20193;-71
2022/08/22 05:36:31;;;;;;;3.53;3.23;;;;;;;19.61;84.26;100052.72;4894895;29;20227;-71
2022/08/22 05:39:06;;;;;;;3.60;2.80;;;;;;;20.58;81.47;100061.75;4895990;29;20221;-72
2022/08/22 05:41:36;;;;;;;3.07;2.77;;;;;;;21.35;78.68;100059.25;4890848;29;20688;-71
2022/08/22 05:44:02;;;;;;;3.27;2.77;;;;;;;22.10;76.94;100058.41;4892816;29;20223;-71
2022/08/22 05:46:41;;;;;;;3.60;3.07;;;;;;;22.77;75.32;100051.66;4896565;29;20211;-73
2022/08/22 05:49:14;;;;;;;2.53;2.33;;;;;;;23.38;73.89;100046.84;4894313;29;20698;-75
2022/08/22 05:51:46;;;;;;;2.77;2.57;;;;;;;23.95;72.62;100052.72;4907290;29;20680;-73
2022/08/22 05:54:20;;;;;;;3.00;2.77;;;;;;;24.47;71.26;100047.38;4909199;29;20207;-73
2022/08/22 05:56:58;;;;;;;2.60;2.40;;;;;;;24.95;70.25;100049.28;4890967;29;20592;-72
2022/08/22 05:59:28;;;;;;;3.77;2.80;;;;;;;25.28;68.12;100050.38;4892784;29;20894;-73
2022/08/22 06:02:12;;;;;;;3.37;3.07;;;;;;;25.43;66.43;100053.72;4904617;29;20239;-72
2022/08/22 06:04:59;;;;;;;3.63;3.20;;;;;;;25.67;65.24;100060.75;4907064;29;20677;-72
2022/08/22 06:07:45;;;;;;;3.80;3.50;;;;;;;25.96;64.18;100057.66;4895426;29;20278;-71
2022/08/22 06:10:24;;;;;;;3.70;3.40;;;;;;;26.26;62.58;100050.97;4897153;29;20196;-73
2022/08/22 06:13:24;;;;;;;3.07;2.87;;;;;;;26.51;61.70;100055.16;4903051;29;20196;-71
2022/08/22 06:15:59;;;;;;;3.77;3.33;;;;;;;26.79;61.40;100052.97;4904168;29;20228;-72
2022/08/22 06:18:26;;;;;;;4.30;2.77;;;;;;;27.07;60.82;100059.53;4900203;29;20206;-73
2022/08/22 06:21:03;;;;;;;4.00;3.23;;;;;;;27.39;60.20;100053.34;4901056;29;20272;-72
2022/08/22 06:23:33;;;;;;;4.27;2.80;;;;;;;27.50;59.68;100059.59;4895465;29;20208;-72
2022/08/22 06:26:00;;;;;;;3.00;2.77;;;;;;;27.71;59.91;100062.25;4899100;29;20221;-75
2022/08/22 06:28:32;;;;;;;5.33;3.00;;;;;;;28.02;59.39;100051.66;4901846;29;20287;-71
2022/08/22 06:31:02;;;;;;;11.67;4.10;;;;;;;28.17;59.07;100059.28;4898414;29;20204;-72
2022/08/22 06:33:32;;;;;;;13.50;4.07;;;;;;;28.22;59.07;100068.56;4910155;29;20184;-73
2022/08/22 06:38:54;;;;;;;7.27;3.67;;;;;;;28.39;58.60;100069.75;4897739;29;20232;-73
2022/08/22 06:41:23;;;;;;;5.23;3.60;;;;;;;28.42;58.14;100074.81;4897275;29;20204;-74
2022/08/22 06:43:53;;;;;;;9.03;3.63;;;;;;;28.45;57.45;100073.69;4910520;29;20248;-72
2022/08/22 06:46:21;;;;;;;5.33;3.57;;;;;;;28.53;57.53;100078.34;4896500;29;20221;-71
2022/08/22 06:48:47;;;;;;;8.60;4.10;;;;;;;28.53;57.18;100081.84;4908975;29;20658;-71
2022/08/22 06:51:15;;;;;;;5.10;3.93;;;;;;;28.52;56.86;100082.81;4893545;29;20677;-76
2022/08/22 06:53:45;;;;;;;4.63;3.70;;;;;;;28.49;56.79;100074.25;4892092;29;20576;-74
2022/08/22 06:56:12;;;;;;;4.67;3.17;;;;;;;28.34;56.94;100073.81;4892092;29;20217;-72
2022/08/22 06:58:44;;;;;;;4.83;3.60;;;;;;;28.24;57.05;100069.28;4894838;29;20193;-71
2022/08/22 07:01:19;;;;;;;6.03;3.60;;;;;;;28.35;57.41;100075.50;4893816;29;20196;-71
2022/08/22 07:03:50;;;;;;;6.97;3.60;;;;;;;28.51;57.02;100077.63;4893714;29;20200;-74
2022/08/22 07:06:28;;;;;;;4.23;3.37;;;;;;;28.68;56.87;100078.78;4893237;29;20217;-71
2022/08/22 07:08:55;;;;;;;4.87;3.30;;;;;;;28.69;56.79;100078.66;4907505;29;20193;-75
2022/08/22 07:11:38;;;;;;;5.67;3.30;;;;;;;28.64;56.75;100077.41;4894328;29;20670;-71
2022/08/22 07:14:10;;;;;;;5.77;3.13;;;;;;;28.66;56.90;100075.44;4889471;29;20225;-71
2022/08/22 07:16:57;;;;;;;4.33;3.07;;;;;;;28.69;56.98;100084.00;4893504;29;20236;-73
2022/08/22 07:19:35;;;;;;;2.87;2.67;;;;;;;28.74;57.30;100080.94;4892965;29;20193;-71
2022/08/22 07:22:14;;;;;;;4.00;3.27;;;;;;;28.74;57.31;100084.44;4892869;29;20189;-72
2022/08/22 07:24:46;;;;;;;3.60;3.30;;;;;;;28.63;56.96;100097.84;4893773;29;20621;-72
2022/08/22 07:27:39;;;;;;;7.00;3.83;;;;;;;28.36;56.95;100086.00;4893090;29;20228;-72
2022/08/22 07:30:13;;;;;;;4.53;3.57;;;;;;;27.96;57.63;100086.75;4906900;29;20307;-72
2022/08/22 07:33:00;;;;;;;4.67;3.30;;;;;;;27.69;58.25;100091.63;4904718;29;20722;-73
2022/08/22 07:35:46;;;;;;;5.20;3.60;;;;;;;27.61;57.99;100088.78;4892480;28;20232;-71
2022/08/22 07:38:42;;;;;;;3.40;3.10;;;;;;;27.40;58.11;100094.03;4896559;29;20200;-71
2022/08/22 07:41:23;;;;;;;5.00;3.17;;;;;;;27.14;58.61;100094.38;4894026;29;20591;-70
2022/08/22 07:43:55;;;;;;;4.30;3.30;;;;;;;26.96;58.75;100095.88;4895222;29;20269;-69
2022/08/22 07:46:49;;;;;;;3.37;3.07;;;;;;;27.03;59.40;100095.25;4894994;29;20224;-72
2022/08/22 07:49:20;;;;;;;5.10;3.47;;;;;;;27.00;58.95;100094.69;4891061;29;20189;-72
2022/08/22 07:51:53;;;;;;;2.90;2.67;;;;;;;26.90;59.03;100094.56;4896765;29;20615;-70
2022/08/22 07:54:56;;;;;;;3.70;2.87;;;;;;;26.73;58.94;100101.22;4896465;28;20200;-73
2022/08/22 07:57:36;;;;;;;5.83;3.57;;;;;;;26.68;59.00;100093.63;4889569;29;20952;-70
2022/08/22 08:00:10;;;;;;;3.57;2.80;;;;;;;26.73;59.29;100099.41;4891287;29;20200;-70
2022/08/22 08:02:36;;;;;;;2.90;2.70;;;;;;;26.82;59.46;100103.16;4890432;29;20258;-70
2022/08/22 08:05:02;;;;;;;3.80;3.10;;;;;;;26.90;59.35;100099.88;4891178;29;20189;-72
2022/08/22 08:07:28;;;;;;;3.17;2.83;;;;;;;26.83;59.55;100101.38;4890915;29;20304;-71
2022/08/22 08:10:00;;;;;;;3.43;3.00;;;;;;;26.86;59.80;100101.09;4892813;29;20196;-75
2022/08/22 08:12:33;;;;;;;3.30;3.00;;;;;;;26.89;59.81;100100.84;4893214;29;20200;-71
2022/08/22 08:15:03;;;;;;;3.30;3.07;;;;;;;26.93;60.26;100091.69;4895466;29;20260;-75
2022/08/22 08:17:33;;;;;;;3.33;3.00;;;;;;;26.88;59.81;100096.50;4907127;29;20188;-70
2022/08/22 08:20:04;;;;;;;3.10;2.83;;;;;;;26.75;60.09;100094.00;4894736;29;20204;-70
2022/08/22 08:22:31;;;;;;;3.27;2.97;;;;;;;26.65;60.42;100087.72;4909426;29;20243;-71
2022/08/22 08:24:59;;;;;;;3.93;3.30;;;;;;;26.57;60.67;100096.28;4892345;29;20224;-70
2022/08/22 08:30:15;;;;;;;3.13;2.90;;;;;;;26.32;60.82;100099.06;4899045;29;20206;-71
2022/08/22 08:32:44;;;;;;;3.80;3.10;;;;;;;26.26;60.64;100101.34;4909014;29;20196;-73
2022/08/22 08:35:34;;;;;;;3.27;2.90;;;;;;;26.22;60.93;100094.63;4896365;29;20261;-70
2022/08/22 08:38:07;;;;;;;3.87;2.90;;;;;;;26.21;61.05;100093.75;4898903;29;20184;-71
2022/08/22 08:40:35;;;;;;;3.80;2.93;;;;;;;26.11;60.89;100090.97;4892981;29;20196;-73
2022/08/22 08:43:30;;;;;;;3.17;2.87;;;;;;;26.11;61.47;100085.69;4890003;29;20734;-70
2022/08/22 08:46:17;;;;;;;3.33;3.03;;;;;;;26.02;61.37;100092.50;4895459;29;20280;-69
2022/08/22 08:49:28;;;;;;;4.77;3.00;;;;;;;26.00;61.60;100089.16;4896646;29;20614;-71
2022/08/22 08:51:53;;;;;;;5.00;3.30;;;;;;;25.84;61.74;100083.34;4894331;29;20450;-71
2022/08/22 08:54:45;;;;;;;3.50;3.00;;;;;;;25.81;62.00;100079.09;4898666;29;20623;-74
2022/08/22 08:57:33;;;;;;;5.87;3.50;;;;;;;25.88;62.11;100082.13;4907499;29;20212;-71
2022/08/22 09:00:12;;;;;;;3.83;2.83;;;;;;;26.00;62.49;100080.34;4899080;29;20206;-71
2022/08/22 09:02:43;;;;;;;3.60;2.87;;;;;;;26.06;62.21;100084.31;4901988;29;20196;-71
2022/08/22 09:05:33;;;;;;;3.77;3.23;;;;;;;26.08;62.19;100077.09;4894904;29;21334;-71
2022/08/22 09:08:13;;;;;;;4.70;2.73;;;;;;;26.15;62.48;100078.34;4896117;29;20652;-76
2022/08/22 09:11:01;;;;;;;3.67;3.37;;;;;;;26.23;62.65;100075.09;4907513;29;20200;-74
2022/08/22 09:13:42;;;;;;;3.43;2.87;;;;;;;26.28;62.49;100086.16;4896112;29;20217;-73
2022/08/22 09:16:18;;;;;;;3.50;3.00;;;;;;;26.38;63.00;100084.50;4896472;29;20224;-72
2022/08/22 09:19:22;;;;;;;3.57;2.90;;;;;;;26.50;62.28;100076.53;4895482;29;20188;-71
2022/08/22 09:22:03;;;;;;;4.00;3.10;;;;;;;26.45;61.77;100069.78;4892793;29;20209;-70
2022/08/22 09:24:47;;;;;;;3.80;3.30;;;;;;;26.50;61.90;100074.69;4897264;29;20539;-71
2022/08/22 09:27:12;;;;;;;3.43;3.00;;;;;;;26.60;62.58;100070.38;4896739;29;20224;-70
2022/08/22 09:29:48;;;;;;;3.57;3.27;;;;;;;26.71;62.56;100074.78;4908438;29;20558;-72
2022/08/22 09:32:34;;;;;;;4.40;3.60;;;;;;;26.84;63.01;100076.50;4898872;29;20192;-74
2022/08/22 09:35:19;;;;;;;4.30;3.20;;;;;;;26.95;63.29;100071.16;4896637;29;20188;-72
2022/08/22 09:38:21;;;;;;;4.03;3.30;;;;;;;27.02;62.77;100072.31;4898356;29;20185;-71
2022/08/22 09:41:02;;;;;;;5.43;2.90;;;;;;;27.04;62.09;100061.59;4894829;29;20197;-70
2022/08/22 09:43:45;;;;;;;7.60;3.80;;;;;;;27.06;61.12;100067.63;4895775;29;20197;-73
2022/08/22 09:46:19;;;;;;;3.43;3.13;;;;;;;27.07;60.98;100062.19;4895127;29;20235;-73
2022/08/22 09:48:55;;;;;;;3.47;3.00;;;;;;;27.10;60.63;100061.06;4892692;29;20195;-72
2022/08/22 09:51:38;;;;;;;7.60;4.63;;;;;;;27.14;59.52;100059.88;4909948;29;20287;-71
2022/08/22 09:54:20;;;;;;;4.47;3.93;;;;;;;27.05;59.28;100056.16;4895225;29;20658;-71
2022/08/22 09:56:53;;;;;;;3.97;3.33;;;;;;;27.06;59.05;100051.69;4910708;29;20213;-71
2022/08/22 09:59:44;;;;;;;5.07;3.90;;;;;;;27.19;59.29;100057.69;4915923;29;21109;-71
2022/08/22 10:02:18;;;;;;;3.50;3.20;;;;;;;27.26;59.46;100052.69;4893348;29;20192;-74
2022/08/22 10:04:57;;;;;;;4.67;4.10;;;;;;;27.39;59.28;100048.03;4896129;29;20193;-74
2022/08/22 10:07:46;;;;;;;4.30;3.33;;;;;;;27.33;58.75;100055.69;4900140;28;20731;-74
2022/08/22 10:10:36;;;;;;;4.00;3.60;;;;;;;27.38;58.65;100049.00;4896272;29;20216;-71
2022/08/22 10:13:20;;;;;;;3.50;3.13;;;;;;;27.44;58.00;100049.47;4915267;29;20257;-72
2022/08/22 10:15:57;;;;;;;4.30;3.17;;;;;;;27.42;57.10;100038.13;4897790;29;20781;-71
2022/08/22 10:18:29;;;;;;;4.53;3.00;;;;;;;27.46;56.80;100045.75;4892923;29;20194;-73
2022/08/22 10:20:57;;;;;;;3.70;2.90;;;;;;;27.58;56.71;100041.22;4896290;29;20240;-71
2022/08/22 10:23:34;;;;;;;3.20;2.93;;;;;;;27.73;56.78;100032.91;4895059;29;20244;-71
2022/08/22 10:26:43;;;;;;;2.90;2.70;;;;;;;27.79;56.49;100030.56;4897218;29;20221;-71
2022/08/22 10:29:46;;;;;;;3.60;3.10;;;;;;;27.90;56.59;100028.78;4904779;29;20587;-73
2022/08/22 10:32:36;;;;;;;3.43;3.13;;;;;;;27.93;55.81;100029.34;4899776;29;20245;-72
2022/08/22 10:35:17;;;;;;;4.53;3.20;;;;;;;27.90;54.37;100028.78;4898579;29;20226;-73
2022/08/22 10:37:57;;;;;;;4.23;2.97;;;;;;;27.76;53.29;100021.97;4894679;29;20197;-72
2022/08/22 10:40:47;;;;;;;3.17;2.87;;;;;;;27.97;54.04;100020.13;4895005;29;20259;-73
2022/08/22 10:43:20;;;;;;;3.60;2.77;;;;;;;28.07;53.65;100019.31;4910996;29;20201;-72
2022/08/22 10:45:57;;;;;;;4.07;2.90;;;;;;;28.18;53.78;100010.44;4895823;29;20224;-73
2022/08/22 10:48:33;;;;;;;3.17;2.87;;;;;;;28.38;54.45;99998.88;4912386;29;20195;-72
2022/08/22 10:51:22;;;;;;;3.03;2.73;;;;;;;28.55;54.04;99993.88;4908692;29;20988;-74
2022/08/22 10:53:47;;;;;;;4.73;3.40;;;;;;;28.60;52.86;100005.78;4905113;29;20193;-71
2022/08/22 10:56:22;;;;;;;3.30;2.73;;;;;;;28.60;53.41;100000.47;4895106;29;20714;-73
2022/08/22 10:58:50;;;;;;;3.93;2.90;;;;;;;28.59;52.73;99997.91;4896283;29;20657;-71
2022/08/22 11:01:17;;;;;;;3.30;3.00;;;;;;;28.62;53.50;99999.50;4897151;29;20201;-71
2022/08/22 11:03:58;;;;;;;3.70;2.97;;;;;;;28.73;53.60;100004.72;4891180;29;20200;-71
2022/08/22 11:06:42;;;;;;;3.20;2.97;;;;;;;28.72;52.86;99995.88;4904988;29;20760;-72
2022/08/22 11:09:14;;;;;;;4.13;3.03;;;;;;;28.65;51.88;100002.69;4892411;29;20205;-71
2022/08/22 11:12:05;;;;;;;3.33;2.70;;;;;;;28.74;51.41;100001.06;4893431;29;20201;-72
2022/08/22 11:14:52;;;;;;;3.23;2.93;;;;;;;28.86;51.59;100002.59;4890391;29;20208;-71
2022/08/22 11:17:24;;;;;;;3.83;2.80;;;;;;;29.01;51.66;99986.22;4892873;29;20220;-74
2022/08/22 11:20:31;;;;;;;2.87;2.60;;;;;;;29.23;52.07;99978.91;4893696;29;20560;-71
2022/08/22 11:23:18;;;;;;;2.83;2.53;;;;;;;29.49;52.43;99984.50;4887977;29;20212;-72
2022/08/22 11:26:22;;;;;;;4.80;3.20;;;;;;;29.76;51.62;99980.19;4890880;29;20268;-75
2022/08/22 11:29:05;;;;;;;6.33;3.07;;;;;;;29.44;50.17;99982.25;4891472;29;20209;-73
2022/08/22 11:31:40;;;;;;;3.00;2.67;;;;;;;29.41;50.08;99982.56;4889577;29;20193;-71
2022/08/22 11:34:30;;;;;;;3.10;2.80;;;;;;;29.42;50.43;99972.72;4892665;29;22638;-71
2022/08/22 11:37:05;;;;;;;4.20;2.83;;;;;;;29.60;50.59;99967.47;4891612;29;20227;-73
2022/08/22 11:39:40;;;;;;;3.73;2.80;;;;;;;29.78;50.01;99973.72;4914046;29;20195;-70
2022/08/22 11:42:13;;;;;;;3.60;2.80;;;;;;;29.99;49.73;99972.69;4892945;29;20914;-70
2022/08/22 11:44:50;;;;;;;4.43;2.90;;;;;;;30.21;50.13;99965.25;4893009;29;20584;-75
2022/08/22 11:47:22;;;;;;;3.13;2.83;;;;;;;30.31;50.05;99960.72;4892676;29;20224;-72
2022/08/22 11:49:56;;;;;;;4.40;3.30;;;;;;;30.39;50.17;99963.47;4892379;29;20193;-72
2022/08/22 11:52:50;;;;;;;7.13;3.33;;;;;;;30.30;49.87;99953.69;4892833;29;20200;-73
2022/08/22 11:55:31;;;;;;;4.90;3.00;;;;;;;30.06;49.16;99957.75;4892687;29;20197;-72
2022/08/22 11:58:29;;;;;;;3.70;3.00;;;;;;;30.16;50.12;99954.22;4891469;29;20275;-72
2022/08/22 12:01:00;;;;;;;4.13;2.90;;;;;;;30.13;49.29;99951.84;4892373;29;20288;-72
2022/08/22 12:03:50;;;;;;;3.00;2.67;;;;;;;29.87;49.94;99955.16;4892041;29;20673;-73
2022/08/22 12:06:44;;;;;;;4.03;2.90;;;;;;;29.52;50.57;99960.19;4891197;29;20208;-73
2022/08/22 12:09:34;;;;;;;3.50;2.97;;;;;;;29.15;50.59;99964.47;4906627;29;20227;-72
2022/08/22 12:12:12;;;;;;;3.20;2.90;;;;;;;29.10;51.10;99955.22;4909714;29;20188;-72
2022/08/22 12:14:45;;;;;;;3.33;2.90;;;;;;;29.38;51.15;99955.31;4910328;29;20657;-71
2022/08/22 12:17:46;;;;;;;6.43;3.57;;;;;;;29.62;51.11;99961.03;4895796;29;20208;-71
2022/08/22 12:20:45;;;;;;;4.60;3.13;;;;;;;29.89;50.67;99940.69;4893186;29;20197;-71
2022/08/22 12:23:45;;;;;;;3.13;2.83;;;;;;;29.91;51.02;99946.72;4894748;29;20272;-73
2022/08/22 12:26:46;;;;;;;3.40;3.10;;;;;;;29.95;50.53;99928.63;4892196;29;20216;-71
2022/08/22 12:29:11;;;;;;;3.47;3.17;;;;;;;30.10;50.77;99934.31;4908706;29;20195;-72
2022/08/22 12:32:11;;;;;;;3.60;2.90;;;;;;;30.18;50.18;99928.19;4893012;29;20196;-71
2022/08/22 12:34:48;;;;;;;3.20;2.90;;;;;;;30.07;50.73;99930.09;4896220;29;20197;-71